sensor_id;sensor_type;location;lat;lon;timestamp;temperature;humidity
20598;DHT22;10457;48.770;11.446;2023-02-15T00:03:41;-0.60;99.90
20598;DHT22;10457;48.770;11.446;2023-02-15T00:09:03;-0.70;99.90
20598;DHT22;10457;48.770;11.446;2023-02-15T00:14:25;-0.80;99.90
20598;DHT22;10457;48.770;11.446;2023-02-15T00:19:47;-0.60;99.90
20598;DHT22;10457;48.770;11.446;2023-02-15T00:25:10;-0.70;99.90
20598;DHT22;10457;48.770;11.446;2023-02-15T00:30:31;-0.70;99.90
20598;DHT22;10457;48.770;11.446;2023-02-15T00:35:56;-0.70;99.90
20598;DHT22;10457;48.770;11.446;2023-02-15T00:41:19;-0.70;99.90
20598;DHT22;10457;48.770;11.446;2023-02-15T00:46:40;-0.80;99.90
20598;DHT22;10457;48.770;11.446;2023-02-15T00:52:03;-0.70;99.90
20598;DHT22;10457;48.770;11.446;2023-02-15T00:57:26;-0.70;99.90
20598;DHT22;10457;48.770;11.446;2023-02-15T01:02:47;-0.90;99.90
20598;DHT22;10457;48.770;11.446;2023-02-15T01:08:09;-0.80;99.90
20598;DHT22;10457;48.770;11.446;2023-02-15T01:13:33;-0.70;99.90
20598;DHT22;10457;48.770;11.446;2023-02-15T01:18:55;-0.80;99.90
20598;DHT22;10457;48.770;11.446;2023-02-15T01:24:17;-0.80;99.90
20598;DHT22;10457;48.770;11.446;2023-02-15T01:29:40;-1.00;99.90
20598;DHT22;10457;48.770;11.446;2023-02-15T01:35:01;-0.90;99.90
20598;DHT22;10457;48.770;11.446;2023-02-15T01:40:25;-0.90;99.90
20598;DHT22;10457;48.770;11.446;2023-02-15T01:45:48;-0.90;99.90
20598;DHT22;10457;48.770;11.446;2023-02-15T01:51:11;-1.00;99.90
20598;DHT22;10457;48.770;11.446;2023-02-15T01:56:35;-1.00;99.90
20598;DHT22;10457;48.770;11.446;2023-02-15T02:02:01;-0.90;99.90
20598;DHT22;10457;48.770;11.446;2023-02-15T02:07:27;-1.00;99.90
20598;DHT22;10457;48.770;11.446;2023-02-15T02:12:50;-0.90;99.90
20598;DHT22;10457;48.770;11.446;2023-02-15T02:18:24;-0.80;99.90
20598;DHT22;10457;48.770;11.446;2023-02-15T02:24:17;-0.90;99.90
20598;DHT22;10457;48.770;11.446;2023-02-15T02:36:15;-0.80;99.90
20598;DHT22;10457;48.770;11.446;2023-02-15T02:41:50;-0.80;99.90
20598;DHT22;10457;48.770;11.446;2023-02-15T02:47:19;-0.90;99.90
20598;DHT22;10457;48.770;11.446;2023-02-15T02:52:46;-0.90;99.90
20598;DHT22;10457;48.770;11.446;2023-02-15T02:58:13;-1.00;99.90
20598;DHT22;10457;48.770;11.446;2023-02-15T03:03:38;-0.90;99.90
20598;DHT22;10457;48.770;11.446;2023-02-15T03:09:09;-1.00;99.90
20598;DHT22;10457;48.770;11.446;2023-02-15T03:14:35;-0.90;99.90
20598;DHT22;10457;48.770;11.446;2023-02-15T03:20:06;-1.00;99.90
20598;DHT22;10457;48.770;11.446;2023-02-15T03:25:34;-1.10;99.90
20598;DHT22;10457;48.770;11.446;2023-02-15T03:31:01;-1.20;99.90
20598;DHT22;10457;48.770;11.446;2023-02-15T03:36:30;-1.10;99.90
20598;DHT22;10457;48.770;11.446;2023-02-15T03:41:59;-1.20;99.90
20598;DHT22;10457;48.770;11.446;2023-02-15T03:47:28;-1.20;99.90
20598;DHT22;10457;48.770;11.446;2023-02-15T03:52:51;-1.20;99.90
20598;DHT22;10457;48.770;11.446;2023-02-15T03:58:15;-1.20;99.90
20598;DHT22;10457;48.770;11.446;2023-02-15T04:03:56;-1.20;99.90
20598;DHT22;10457;48.770;11.446;2023-02-15T04:09:20;-1.20;99.90
20598;DHT22;10457;48.770;11.446;2023-02-15T04:15:00;-1.30;99.90
20598;DHT22;10457;48.770;11.446;2023-02-15T04:20:42;-1.40;99.90
20598;DHT22;10457;48.770;11.446;2023-02-15T04:26:22;-1.40;99.90
20598;DHT22;10457;48.770;11.446;2023-02-15T04:31:45;-1.30;99.90
20598;DHT22;10457;48.770;11.446;2023-02-15T04:37:07;-1.40;99.90
20598;DHT22;10457;48.770;11.446;2023-02-15T04:42:29;-1.40;99.90
20598;DHT22;10457;48.770;11.446;2023-02-15T04:47:52;-1.50;99.90
20598;DHT22;10457;48.770;11.446;2023-02-15T04:53:13;-1.40;99.90
20598;DHT22;10457;48.770;11.446;2023-02-15T04:58:36;-1.30;99.90
20598;DHT22;10457;48.770;11.446;2023-02-15T05:04:02;-1.40;99.90
20598;DHT22;10457;48.770;11.446;2023-02-15T05:09:24;-1.40;99.90
20598;DHT22;10457;48.770;11.446;2023-02-15T05:14:45;-1.40;99.90
20598;DHT22;10457;48.770;11.446;2023-02-15T05:20:09;-1.60;99.90
20598;DHT22;10457;48.770;11.446;2023-02-15T05:25:31;-1.50;99.90
20598;DHT22;10457;48.770;11.446;2023-02-15T05:31:11;-1.60;99.90
20598;DHT22;10457;48.770;11.446;2023-02-15T05:36:35;-1.50;99.90
20598;DHT22;10457;48.770;11.446;2023-02-15T05:41:58;-1.50;99.90
20598;DHT22;10457;48.770;11.446;2023-02-15T05:47:20;-1.40;99.90
20598;DHT22;10457;48.770;11.446;2023-02-15T05:52:43;-1.40;99.90
20598;DHT22;10457;48.770;11.446;2023-02-15T05:58:04;-1.50;99.90
20598;DHT22;10457;48.770;11.446;2023-02-15T06:03:26;-1.50;99.90
20598;DHT22;10457;48.770;11.446;2023-02-15T06:08:49;-1.50;99.90
20598;DHT22;10457;48.770;11.446;2023-02-15T06:14:11;-1.60;99.90
20598;DHT22;10457;48.770;11.446;2023-02-15T06:19:33;-1.60;99.90
20598;DHT22;10457;48.770;11.446;2023-02-15T06:24:55;-1.60;99.90
20598;DHT22;10457;48.770;11.446;2023-02-15T06:30:17;-1.60;99.90
20598;DHT22;10457;48.770;11.446;2023-02-15T06:35:39;-1.50;99.90
20598;DHT22;10457;48.770;11.446;2023-02-15T06:41:02;-1.40;99.90
20598;DHT22;10457;48.770;11.446;2023-02-15T06:46:23;-1.40;99.90
20598;DHT22;10457;48.770;11.446;2023-02-15T06:51:45;-1.30;99.90
20598;DHT22;10457;48.770;11.446;2023-02-15T06:57:08;-1.50;99.90
20598;DHT22;10457;48.770;11.446;2023-02-15T07:02:30;-1.40;99.90
20598;DHT22;10457;48.770;11.446;2023-02-15T07:07:52;-1.40;99.90
20598;DHT22;10457;48.770;11.446;2023-02-15T07:13:15;-1.50;99.90
20598;DHT22;10457;48.770;11.446;2023-02-15T07:18:36;-1.50;99.90
20598;DHT22;10457;48.770;11.446;2023-02-15T07:23:58;-1.50;99.90
20598;DHT22;10457;48.770;11.446;2023-02-15T07:29:21;-1.50;99.90
20598;DHT22;10457;48.770;11.446;2023-02-15T07:34:43;-1.40;99.90
20598;DHT22;10457;48.770;11.446;2023-02-15T07:40:05;-1.30;99.90
20598;DHT22;10457;48.770;11.446;2023-02-15T07:45:29;-1.20;99.90
20598;DHT22;10457;48.770;11.446;2023-02-15T07:50:51;-1.30;99.90
20598;DHT22;10457;48.770;11.446;2023-02-15T07:56:13;-1.40;99.90
20598;DHT22;10457;48.770;11.446;2023-02-15T08:01:38;-1.30;99.90
20598;DHT22;10457;48.770;11.446;2023-02-15T08:07:00;-1.20;99.90
20598;DHT22;10457;48.770;11.446;2023-02-15T08:12:21;-1.10;99.90
20598;DHT22;10457;48.770;11.446;2023-02-15T08:17:44;-1.10;99.90
20598;DHT22;10457;48.770;11.446;2023-02-15T08:23:05;-0.90;99.90
20598;DHT22;10457;48.770;11.446;2023-02-15T08:28:27;-0.90;99.90
20598;DHT22;10457;48.770;11.446;2023-02-15T08:33:52;-1.10;99.90
20598;DHT22;10457;48.770;11.446;2023-02-15T08:39:15;-1.00;99.90
20598;DHT22;10457;48.770;11.446;2023-02-15T08:44:37;-1.10;99.90
20598;DHT22;10457;48.770;11.446;2023-02-15T08:50:00;-1.00;99.90
20598;DHT22;10457;48.770;11.446;2023-02-15T08:55:21;-0.90;99.90
20598;DHT22;10457;48.770;11.446;2023-02-15T09:00:43;-0.90;99.90
20598;DHT22;10457;48.770;11.446;2023-02-15T09:06:06;-0.80;99.90
20598;DHT22;10457;48.770;11.446;2023-02-15T09:11:28;-0.70;99.90
20598;DHT22;10457;48.770;11.446;2023-02-15T09:16:52;-0.60;99.90
20598;DHT22;10457;48.770;11.446;2023-02-15T09:22:15;-0.70;99.90
20598;DHT22;10457;48.770;11.446;2023-02-15T09:27:36;-0.70;99.90
20598;DHT22;10457;48.770;11.446;2023-02-15T09:32:59;-0.60;99.90
20598;DHT22;10457;48.770;11.446;2023-02-15T09:38:22;-0.70;99.90
20598;DHT22;10457;48.770;11.446;2023-02-15T09:43:53;-0.60;99.90
20598;DHT22;10457;48.770;11.446;2023-02-15T09:49:28;-0.60;99.90
20598;DHT22;10457;48.770;11.446;2023-02-15T10:00:54;-0.40;99.90
20598;DHT22;10457;48.770;11.446;2023-02-15T10:06:35;-0.40;99.90
20598;DHT22;10457;48.770;11.446;2023-02-15T10:12:15;-0.20;99.90
20598;DHT22;10457;48.770;11.446;2023-02-15T10:18:01;-0.20;99.90
20598;DHT22;10457;48.770;11.446;2023-02-15T10:23:51;-0.10;99.90
20598;DHT22;10457;48.770;11.446;2023-02-15T10:29:27;0.00;99.90
20598;DHT22;10457;48.770;11.446;2023-02-15T10:34:54;0.10;99.90
20598;DHT22;10457;48.770;11.446;2023-02-15T10:40:25;0.20;99.90
20598;DHT22;10457;48.770;11.446;2023-02-15T10:45:57;0.30;99.90
20598;DHT22;10457;48.770;11.446;2023-02-15T10:51:29;0.30;99.90
20598;DHT22;10457;48.770;11.446;2023-02-15T10:57:03;0.10;99.90
20598;DHT22;10457;48.770;11.446;2023-02-15T11:02:37;0.20;99.90
20598;DHT22;10457;48.770;11.446;2023-02-15T11:08:15;0.20;99.90
20598;DHT22;10457;48.770;11.446;2023-02-15T11:13:40;0.40;99.90
20598;DHT22;10457;48.770;11.446;2023-02-15T11:19:11;0.40;99.90
20598;DHT22;10457;48.770;11.446;2023-02-15T11:24:38;0.30;99.90
20598;DHT22;10457;48.770;11.446;2023-02-15T11:30:04;0.40;99.90
20598;DHT22;10457;48.770;11.446;2023-02-15T11:35:33;0.50;99.90
20598;DHT22;10457;48.770;11.446;2023-02-15T11:41:01;0.60;99.90
20598;DHT22;10457;48.770;11.446;2023-02-15T11:46:24;0.70;99.90
20598;DHT22;10457;48.770;11.446;2023-02-15T11:51:47;0.60;99.90
20598;DHT22;10457;48.770;11.446;2023-02-15T11:57:15;0.50;99.90
20598;DHT22;10457;48.770;11.446;2023-02-15T12:02:41;0.80;99.90
20598;DHT22;10457;48.770;11.446;2023-02-15T12:08:15;0.90;99.90
20598;DHT22;10457;48.770;11.446;2023-02-15T12:13:54;1.10;99.90
20598;DHT22;10457;48.770;11.446;2023-02-15T12:19:32;1.00;99.90
20598;DHT22;10457;48.770;11.446;2023-02-15T12:24:57;0.80;99.90
20598;DHT22;10457;48.770;11.446;2023-02-15T12:30:25;0.90;99.90
20598;DHT22;10457;48.770;11.446;2023-02-15T12:35:57;1.10;99.90
20598;DHT22;10457;48.770;11.446;2023-02-15T12:41:25;1.10;99.90
20598;DHT22;10457;48.770;11.446;2023-02-15T12:46:57;1.30;99.90
20598;DHT22;10457;48.770;11.446;2023-02-15T12:52:24;1.30;99.90
20598;DHT22;10457;48.770;11.446;2023-02-15T12:57:47;1.20;99.90
20598;DHT22;10457;48.770;11.446;2023-02-15T13:03:17;1.50;99.90
20598;DHT22;10457;48.770;11.446;2023-02-15T13:08:47;1.50;99.90
20598;DHT22;10457;48.770;11.446;2023-02-15T13:14:18;1.40;99.90
20598;DHT22;10457;48.770;11.446;2023-02-15T13:19:43;1.50;99.90
20598;DHT22;10457;48.770;11.446;2023-02-15T13:25:11;1.30;99.90
20598;DHT22;10457;48.770;11.446;2023-02-15T13:30:38;1.30;99.90
20598;DHT22;10457;48.770;11.446;2023-02-15T13:36:10;1.40;99.90
20598;DHT22;10457;48.770;11.446;2023-02-15T13:41:46;1.40;99.90
20598;DHT22;10457;48.770;11.446;2023-02-15T13:47:19;1.40;99.90
20598;DHT22;10457;48.770;11.446;2023-02-15T13:52:47;1.40;99.90
20598;DHT22;10457;48.770;11.446;2023-02-15T13:58:44;1.30;99.90
20598;DHT22;10457;48.770;11.446;2023-02-15T14:04:43;1.40;99.90
20598;DHT22;10457;48.770;11.446;2023-02-15T14:10:25;1.60;99.90
20598;DHT22;10457;48.770;11.446;2023-02-15T14:15:56;1.60;99.90
20598;DHT22;10457;48.770;11.446;2023-02-15T14:21:26;1.50;99.90
20598;DHT22;10457;48.770;11.446;2023-02-15T14:26:59;1.60;99.90
20598;DHT22;10457;48.770;11.446;2023-02-15T14:32:29;1.60;99.90
20598;DHT22;10457;48.770;11.446;2023-02-15T14:38:01;1.60;99.90
20598;DHT22;10457;48.770;11.446;2023-02-15T14:43:34;1.60;99.90
20598;DHT22;10457;48.770;11.446;2023-02-15T14:49:09;1.50;99.90
20598;DHT22;10457;48.770;11.446;2023-02-15T14:54:57;1.50;99.90
20598;DHT22;10457;48.770;11.446;2023-02-15T15:00:33;1.60;99.90
20598;DHT22;10457;48.770;11.446;2023-02-15T15:05:59;1.60;99.90
20598;DHT22;10457;48.770;11.446;2023-02-15T15:11:45;1.70;99.90
20598;DHT22;10457;48.770;11.446;2023-02-15T15:17:10;1.60;99.90
20598;DHT22;10457;48.770;11.446;2023-02-15T15:22:34;1.40;99.90
20598;DHT22;10457;48.770;11.446;2023-02-15T15:27:57;1.30;99.90
20598;DHT22;10457;48.770;11.446;2023-02-15T15:33:54;1.40;99.90
20598;DHT22;10457;48.770;11.446;2023-02-15T15:46:04;1.40;99.90
20598;DHT22;10457;48.770;11.446;2023-02-15T15:51:32;1.40;99.90
20598;DHT22;10457;48.770;11.446;2023-02-15T15:56:59;1.30;99.90
20598;DHT22;10457;48.770;11.446;2023-02-15T16:02:23;1.20;99.90
20598;DHT22;10457;48.770;11.446;2023-02-15T16:07:44;1.20;99.90
20598;DHT22;10457;48.770;11.446;2023-02-15T16:13:06;1.40;99.90
20598;DHT22;10457;48.770;11.446;2023-02-15T16:18:29;1.20;99.90
20598;DHT22;10457;48.770;11.446;2023-02-15T16:24:18;1.30;99.90
20598;DHT22;10457;48.770;11.446;2023-02-15T16:29:43;1.20;99.90
20598;DHT22;10457;48.770;11.446;2023-02-15T16:35:15;1.10;99.90
20598;DHT22;10457;48.770;11.446;2023-02-15T16:40:46;1.00;99.90
20598;DHT22;10457;48.770;11.446;2023-02-15T16:46:12;0.90;99.90
20598;DHT22;10457;48.770;11.446;2023-02-15T16:51:37;1.00;99.90
20598;DHT22;10457;48.770;11.446;2023-02-15T16:57:02;0.90;99.90
20598;DHT22;10457;48.770;11.446;2023-02-15T17:02:26;0.90;99.90
20598;DHT22;10457;48.770;11.446;2023-02-15T17:08:04;1.00;99.90
20598;DHT22;10457;48.770;11.446;2023-02-15T17:13:27;1.00;99.90
20598;DHT22;10457;48.770;11.446;2023-02-15T17:18:49;1.00;99.90
20598;DHT22;10457;48.770;11.446;2023-02-15T17:24:16;1.00;99.90
20598;DHT22;10457;48.770;11.446;2023-02-15T17:29:44;0.90;99.90
20598;DHT22;10457;48.770;11.446;2023-02-15T17:35:14;1.00;99.90
20598;DHT22;10457;48.770;11.446;2023-02-15T17:40:39;1.00;99.90
20598;DHT22;10457;48.770;11.446;2023-02-15T17:46:00;1.10;99.90
20598;DHT22;10457;48.770;11.446;2023-02-15T17:51:22;1.00;99.90
20598;DHT22;10457;48.770;11.446;2023-02-15T17:56:45;0.90;99.90
20598;DHT22;10457;48.770;11.446;2023-02-15T18:02:08;0.80;99.90
20598;DHT22;10457;48.770;11.446;2023-02-15T18:07:48;0.60;99.90
20598;DHT22;10457;48.770;11.446;2023-02-15T18:13:29;0.60;99.90
20598;DHT22;10457;48.770;11.446;2023-02-15T18:18:51;0.50;99.90
20598;DHT22;10457;48.770;11.446;2023-02-15T18:24:18;0.50;99.90
20598;DHT22;10457;48.770;11.446;2023-02-15T18:29:41;0.70;99.90
20598;DHT22;10457;48.770;11.446;2023-02-15T18:35:03;0.60;99.90
20598;DHT22;10457;48.770;11.446;2023-02-15T18:40:28;0.50;99.90
20598;DHT22;10457;48.770;11.446;2023-02-15T18:45:51;0.60;99.90
20598;DHT22;10457;48.770;11.446;2023-02-15T18:51:17;0.60;99.90
20598;DHT22;10457;48.770;11.446;2023-02-15T18:56:39;0.50;99.90
20598;DHT22;10457;48.770;11.446;2023-02-15T19:02:02;0.50;99.90
20598;DHT22;10457;48.770;11.446;2023-02-15T19:07:26;0.40;99.90
20598;DHT22;10457;48.770;11.446;2023-02-15T19:12:55;0.40;99.90
20598;DHT22;10457;48.770;11.446;2023-02-15T19:18:18;0.30;99.90
20598;DHT22;10457;48.770;11.446;2023-02-15T19:23:40;0.40;99.90
20598;DHT22;10457;48.770;11.446;2023-02-15T19:29:01;0.30;99.90
20598;DHT22;10457;48.770;11.446;2023-02-15T19:34:26;0.40;99.90
20598;DHT22;10457;48.770;11.446;2023-02-15T19:39:48;0.40;99.90
20598;DHT22;10457;48.770;11.446;2023-02-15T19:45:13;0.40;99.90
20598;DHT22;10457;48.770;11.446;2023-02-15T19:50:36;0.30;99.90
20598;DHT22;10457;48.770;11.446;2023-02-15T19:55:57;0.30;99.90
20598;DHT22;10457;48.770;11.446;2023-02-15T20:01:20;0.20;99.90
20598;DHT22;10457;48.770;11.446;2023-02-15T20:06:43;0.10;99.90
20598;DHT22;10457;48.770;11.446;2023-02-15T20:12:15;0.00;99.90
20598;DHT22;10457;48.770;11.446;2023-02-15T20:17:42;-0.10;99.90
20598;DHT22;10457;48.770;11.446;2023-02-15T20:23:05;0.00;99.90
20598;DHT22;10457;48.770;11.446;2023-02-15T20:28:34;0.10;99.90
20598;DHT22;10457;48.770;11.446;2023-02-15T20:33:56;0.10;99.90
20598;DHT22;10457;48.770;11.446;2023-02-15T20:39:19;0.10;99.90
20598;DHT22;10457;48.770;11.446;2023-02-15T20:44:41;0.10;99.90
20598;DHT22;10457;48.770;11.446;2023-02-15T20:50:02;0.10;99.90
20598;DHT22;10457;48.770;11.446;2023-02-15T20:55:26;0.00;99.90
20598;DHT22;10457;48.770;11.446;2023-02-15T21:00:49;-0.10;99.90
20598;DHT22;10457;48.770;11.446;2023-02-15T21:06:12;0.10;99.90
20598;DHT22;10457;48.770;11.446;2023-02-15T21:11:35;0.20;99.90
20598;DHT22;10457;48.770;11.446;2023-02-15T21:16:57;0.20;99.90
20598;DHT22;10457;48.770;11.446;2023-02-15T21:22:18;0.00;99.90
20598;DHT22;10457;48.770;11.446;2023-02-15T21:27:43;-0.10;99.90
20598;DHT22;10457;48.770;11.446;2023-02-15T21:33:05;-0.10;99.90
20598;DHT22;10457;48.770;11.446;2023-02-15T21:38:28;-0.10;99.90
20598;DHT22;10457;48.770;11.446;2023-02-15T21:43:53;-0.10;99.90
20598;DHT22;10457;48.770;11.446;2023-02-15T21:49:32;-0.10;99.90
20598;DHT22;10457;48.770;11.446;2023-02-15T21:54:53;0.00;99.90
20598;DHT22;10457;48.770;11.446;2023-02-15T22:00:19;-0.10;99.90
20598;DHT22;10457;48.770;11.446;2023-02-15T22:05:44;-0.20;99.90
20598;DHT22;10457;48.770;11.446;2023-02-15T22:11:10;-0.20;99.90
20598;DHT22;10457;48.770;11.446;2023-02-15T22:16:34;-0.10;99.90
20598;DHT22;10457;48.770;11.446;2023-02-15T22:21:55;0.00;99.90
20598;DHT22;10457;48.770;11.446;2023-02-15T22:27:19;-0.10;99.90
20598;DHT22;10457;48.770;11.446;2023-02-15T22:32:42;-0.10;99.90
20598;DHT22;10457;48.770;11.446;2023-02-15T22:38:04;0.00;99.90
20598;DHT22;10457;48.770;11.446;2023-02-15T22:43:37;0.00;99.90
20598;DHT22;10457;48.770;11.446;2023-02-15T22:49:00;0.00;99.90
20598;DHT22;10457;48.770;11.446;2023-02-15T22:54:22;-0.10;99.90
20598;DHT22;10457;48.770;11.446;2023-02-15T22:59:43;-0.20;99.90
20598;DHT22;10457;48.770;11.446;2023-02-15T23:05:17;-0.30;99.90
20598;DHT22;10457;48.770;11.446;2023-02-15T23:10:42;-0.20;99.90
20598;DHT22;10457;48.770;11.446;2023-02-15T23:16:06;-0.20;99.90
20598;DHT22;10457;48.770;11.446;2023-02-15T23:21:32;-0.20;99.90
20598;DHT22;10457;48.770;11.446;2023-02-15T23:26:55;-0.10;99.90
20598;DHT22;10457;48.770;11.446;2023-02-15T23:32:37;-0.10;99.90
20598;DHT22;10457;48.770;11.446;2023-02-15T23:38:00;-0.10;99.90
20598;DHT22;10457;48.770;11.446;2023-02-15T23:43:22;0.00;99.90
20598;DHT22;10457;48.770;11.446;2023-02-15T23:48:43;-0.10;99.90
20598;DHT22;10457;48.770;11.446;2023-02-15T23:54:06;-0.10;99.90
20598;DHT22;10457;48.770;11.446;2023-02-15T23:59:30;-0.10;99.90
